Etusivu
METAR-TAF:

METAR-TAF

Lentoasemat :

Hongkongin kansainvälinen lentoasema

Hongkong, Kiina

Leveyspiiri: 22-19N, Pituuspiiri: 113-55E, korkeus merenpinnasta: 9 m

Tämänhetkinen sää

Tämä raportti tehtiin 20 minuuttia sitten, kello 13.30 UTC
Tuuli 8 kn etelästä/kaakosta, vaihdellen idän/kaakon ja etelän välillä
Lämpötila 29°C
Kosteus 70%
Ilmanpaine 1009 hPa
Näkyvyys 10 km tai enemmän
Muutamia pilviä 2200 ft:n korkeudessa

METAR: VHHH 241330Z 16008KT 110V190 9999 FEW022 29/23 Q1009 NOSIG

Aika: 21:50 (13:50 UTC)

Sääennuste

Tämä raportti tehtiin 2 tuntia ja 50 minuuttia sitten, kello 11.00 UTC
Ennuste voimassa 24. päivästä klo 12 UTC - 25. päivään klo 18 UTC
Tuuli 10 kn etelästä
Näkyvyys 10 km tai enemmän
Muutamia pilviä 2500 ft:n korkeudessa
Ajoittain
24. päivästä klo 18 UTC - 25. päivään klo 02 UTC
Tuuli 5 kn eri suunnista

TAF: VHHH 241100Z 2412/2518 18010KT 9999 FEW025 TX34/2506Z TN27/2421Z TEMPO 2418/2502 VRB05KT

Säähavainnot ja -ennusteet yli 4000 lentoasemalta (METAR- ja TAF-raportit).

Käytössä olevat sääasemat on merkitty karttaan keltaisilla ja punaisilla pisteillä.

Aseta hiiri pisteen päälle nähdäksesi sääaseman nimen.

Klikkaa sitten nähdäksesi säähavainnot ja -ennusteet.

Kartan vaihtaminen: klikkaa mustalla rastilla varustettuja vihreitä pisteitä, niin voit zoomata sisään; viivalla varustettua vihreää pistettä, niin voit zoomata ulos tai vihreitä nuolia, niin pääset viereisille kartoille.


METAR-TAF: